createdAt,value
2022-10-15T00:02:39.729Z,97202.78
2022-10-15T00:06:41.885Z,97200.28
2022-10-15T00:10:43.844Z,97192.25
2022-10-15T00:14:45.852Z,97192.03
2022-10-15T00:18:48.840Z,97192.84
2022-10-15T00:22:50.887Z,97201.53
2022-10-15T00:26:52.906Z,97194.34
2022-10-15T00:31:00.945Z,97194.34
2022-10-15T00:35:03.286Z,97192.84
2022-10-15T00:39:06.740Z,97186.34
2022-10-15T00:43:11.670Z,97195.66
2022-10-15T00:47:13.642Z,97196.69
2022-10-15T00:51:19.203Z,97187.00
2022-10-15T00:55:28.438Z,97191.84
2022-10-15T00:59:32.703Z,97173.81
2022-10-15T01:03:35.884Z,97189.22
2022-10-15T01:07:38.218Z,97187.81
2022-10-15T01:11:50.749Z,97178.44
2022-10-15T01:16:04.354Z,97179.38
2022-10-15T01:20:20.590Z,97173.91
2022-10-15T01:24:28.709Z,97172.75
2022-10-15T01:28:54.185Z,97166.31
2022-10-15T01:33:26.411Z,97154.59
2022-10-15T01:37:36.647Z,97158.91
2022-10-15T01:41:41.887Z,97151.94
2022-10-15T01:45:49.163Z,97152.78
2022-10-15T01:50:04.966Z,97157.94
2022-10-15T01:54:12.269Z,97150.25
2022-10-15T01:58:17.048Z,97163.66
2022-10-15T02:02:19.234Z,97153.31
2022-10-15T02:06:34.629Z,97141.81
2022-10-15T02:11:21.460Z,97143.28
2022-10-15T02:15:34.285Z,97141.50
2022-10-15T02:19:43.755Z,97138.84
2022-10-15T02:23:57.384Z,97139.19
2022-10-15T02:28:00.310Z,97161.22
2022-10-15T02:32:06.532Z,97157.88
2022-10-15T02:36:08.842Z,97164.84
2022-10-15T02:40:11.198Z,97160.41
2022-10-15T02:44:13.758Z,97145.41
2022-10-15T02:48:16.266Z,97152.59
2022-10-15T02:52:19.294Z,97142.06
2022-10-15T02:56:21.465Z,97136.03
2022-10-15T03:00:24.233Z,97125.72
2022-10-15T03:04:26.435Z,97126.88
2022-10-15T03:08:28.759Z,97132.81
2022-10-15T03:12:30.921Z,97134.91
2022-10-15T03:16:33.490Z,97136.19
2022-10-15T03:20:35.629Z,97140.63
2022-10-15T03:24:37.736Z,97145.03
2022-10-15T03:28:40.475Z,97152.13
2022-10-15T03:36:45.748Z,97157.88
2022-10-15T03:40:47.846Z,97154.31
2022-10-15T03:44:58.546Z,97158.97
2022-10-15T03:49:01.105Z,97157.16
2022-10-15T03:53:05.094Z,97154.31
2022-10-15T03:57:07.298Z,97150.97
2022-10-15T04:01:17.120Z,97161.50
2022-10-15T04:05:20.309Z,97173.50
2022-10-15T04:09:28.005Z,97159.38
2022-10-15T04:13:50.865Z,97160.22
2022-10-15T04:17:56.029Z,97161.06
2022-10-15T04:22:00.580Z,97164.66
2022-10-15T04:26:07.442Z,97165.59
2022-10-15T04:30:10.276Z,97178.88
2022-10-15T04:34:16.724Z,97184.16
2022-10-15T04:38:18.964Z,97184.25
2022-10-15T04:42:41.304Z,97186.16
2022-10-15T04:46:43.468Z,97176.66
2022-10-15T04:51:08.642Z,97171.22
2022-10-15T04:55:23.073Z,97178.59
2022-10-15T04:59:27.345Z,97190.06
2022-10-15T05:04:01.450Z,97190.06
2022-10-15T05:08:05.363Z,97192.91
2022-10-15T05:12:16.713Z,97192.69
2022-10-15T05:16:24.633Z,97185.72
2022-10-15T05:20:26.725Z,97186.66
2022-10-15T05:24:29.119Z,97194.78
2022-10-15T05:28:39.166Z,97195.72
2022-10-15T05:32:41.617Z,97201.13
2022-10-15T05:36:47.084Z,97196.91
2022-10-15T05:40:50.885Z,97205.56
2022-10-15T05:44:57.950Z,97211.44
2022-10-15T05:49:00.008Z,97211.44
2022-10-15T05:53:03.429Z,97217.34
2022-10-15T05:57:21.859Z,97222.22
2022-10-15T06:01:24.014Z,97228.94
2022-10-15T06:05:28.940Z,97233.28
2022-10-15T06:09:31.022Z,97241.59
2022-10-15T06:13:33.044Z,97250.13
2022-10-15T06:17:35.961Z,97262.97
2022-10-15T06:21:37.950Z,97252.25
2022-10-15T06:25:39.968Z,97250.78
2022-10-15T06:29:41.951Z,97252.16
2022-10-15T06:33:43.972Z,97257.94
2022-10-15T06:37:46.021Z,97262.69
2022-10-15T06:41:48.004Z,97274.38
2022-10-15T06:45:50.143Z,97280.91
2022-10-15T06:49:52.192Z,97287.56
2022-10-15T06:53:54.256Z,97289.03
2022-10-15T06:57:56.828Z,97301.25
2022-10-15T07:02:01.567Z,97309.09
2022-10-15T07:06:05.444Z,97318.56
2022-10-15T07:10:09.052Z,97316.56
2022-10-15T07:14:13.857Z,97323.66
2022-10-15T07:18:15.895Z,97320.03
2022-10-15T07:22:18.204Z,97337.53
2022-10-15T07:26:20.263Z,97337.09
2022-10-15T07:30:23.726Z,97321.56
2022-10-15T07:34:26.914Z,97310.41
2022-10-15T07:38:28.909Z,97331.41
2022-10-15T07:42:30.964Z,97329.28
2022-10-15T07:46:33.017Z,97332.66
2022-10-15T07:50:36.379Z,97346.78
2022-10-15T07:54:41.055Z,97336.88
2022-10-15T07:58:43.511Z,97341.09
2022-10-15T08:02:46.873Z,97345.84
2022-10-15T08:06:51.337Z,97337.72
2022-10-15T08:10:53.451Z,97346.59
2022-10-15T08:14:55.435Z,97348.78
2022-10-15T08:18:59.079Z,97352.91
2022-10-15T08:23:01.077Z,97360.50
2022-10-15T08:27:03.136Z,97354.91
2022-10-15T08:31:06.128Z,97356.97
2022-10-15T08:35:08.574Z,97363.38
2022-10-15T08:39:10.566Z,97366.09
2022-10-15T08:43:25.631Z,97361.13
2022-10-15T08:47:40.096Z,97348.31
2022-10-15T08:51:47.201Z,97355.22
2022-10-15T08:55:53.665Z,97357.31
2022-10-15T09:00:01.491Z,97368.63
2022-10-15T09:04:32.762Z,97369.59
2022-10-15T09:09:16.364Z,97375.47
2022-10-15T09:13:28.302Z,97372.34
2022-10-15T09:17:32.567Z,97376.72
2022-10-15T09:21:35.725Z,97370.00
2022-10-15T09:25:41.100Z,97373.59
2022-10-15T09:29:52.626Z,97374.81
2022-10-15T09:34:03.523Z,97368.94
2022-10-15T09:38:20.766Z,97372.59
2022-10-15T09:42:30.775Z,97375.50
2022-10-15T09:46:32.813Z,97369.19
2022-10-15T09:50:46.541Z,97357.84
2022-10-15T09:54:54.933Z,97354.59
2022-10-15T09:58:58.619Z,97369.84
2022-10-15T10:03:09.631Z,97362.81
2022-10-15T10:07:35.732Z,97360.53
2022-10-15T10:12:05.694Z,97365.59
2022-10-15T10:16:13.184Z,97366.19
2022-10-15T10:20:19.505Z,97375.47
2022-10-15T10:24:32.000Z,97368.78
2022-10-15T10:28:45.077Z,97372.19
2022-10-15T10:32:47.863Z,97366.41
2022-10-15T10:36:52.435Z,97365.22
2022-10-15T10:41:12.641Z,97364.78
2022-10-15T10:45:22.305Z,97365.94
2022-10-15T10:49:32.700Z,97374.28
2022-10-15T10:53:44.368Z,97362.63
2022-10-15T10:57:51.388Z,97368.28
2022-10-15T11:01:54.070Z,97366.22
2022-10-15T11:06:05.805Z,97361.16
2022-10-15T11:10:30.495Z,97355.22
2022-10-15T11:14:44.992Z,97358.06
2022-10-15T11:19:43.915Z,97357.06
2022-10-15T11:23:48.861Z,97353.38
2022-10-15T11:28:18.799Z,97346.09
2022-10-15T11:33:08.569Z,97334.47
2022-10-15T11:37:23.036Z,97341.72
2022-10-15T11:41:39.895Z,97343.84
2022-10-15T11:46:01.378Z,97338.94
2022-10-15T11:50:27.107Z,97341.94
2022-10-15T11:54:40.532Z,97340.22
2022-10-15T11:58:48.110Z,97334.63
2022-10-15T12:02:51.336Z,97331.94
2022-10-15T12:06:56.964Z,97331.44
2022-10-15T12:11:09.513Z,97330.22
2022-10-15T12:15:24.085Z,97321.94
2022-10-15T12:19:54.523Z,97314.41
2022-10-15T12:23:56.542Z,97313.59
2022-10-15T12:28:13.262Z,97309.25
2022-10-15T12:32:36.193Z,97316.25
2022-10-15T12:36:38.518Z,97301.63
2022-10-15T12:40:40.999Z,97299.84
2022-10-15T12:44:49.432Z,97299.84
2022-10-15T12:48:56.038Z,97298.44
2022-10-15T12:52:58.016Z,97291.13
2022-10-15T12:57:00.018Z,97287.63
2022-10-15T13:01:14.328Z,97281.88
2022-10-15T13:05:31.711Z,97291.41
2022-10-15T13:09:34.521Z,97273.88
2022-10-15T13:13:43.216Z,97285.44
2022-10-15T13:17:45.940Z,97285.22
2022-10-15T13:21:53.981Z,97284.84
2022-10-15T13:26:20.013Z,97287.13
2022-10-15T13:34:31.992Z,97293.00
2022-10-15T13:38:37.176Z,97287.44
2022-10-15T13:42:58.000Z,97292.97
2022-10-15T13:46:59.978Z,97287.63
2022-10-15T13:51:04.329Z,97283.63
2022-10-15T13:55:20.044Z,97275.53
2022-10-15T13:59:23.323Z,97284.22
2022-10-15T14:03:30.969Z,97279.56
2022-10-15T14:07:32.963Z,97291.31
2022-10-15T14:11:35.121Z,97284.09
2022-10-15T14:15:50.956Z,97269.03
2022-10-15T14:20:31.711Z,97280.72
2022-10-15T14:24:40.111Z,97292.09
2022-10-15T14:28:49.166Z,97291.25
2022-10-15T14:32:54.746Z,97289.19
2022-10-15T14:36:57.015Z,97292.28
2022-10-15T14:41:25.671Z,97294.16
2022-10-15T14:45:29.955Z,97291.50
2022-10-15T14:49:34.426Z,97288.38
2022-10-15T14:53:39.075Z,97294.81
2022-10-15T14:57:44.341Z,97309.91
2022-10-15T15:01:58.475Z,97314.81
2022-10-15T15:06:03.872Z,97311.31
2022-10-15T15:10:08.646Z,97311.84
2022-10-15T15:14:36.872Z,97327.00
2022-10-15T15:18:39.230Z,97315.25
2022-10-15T15:22:42.290Z,97307.19
2022-10-15T15:26:44.261Z,97301.81
2022-10-15T15:30:51.317Z,97306.41
2022-10-15T15:34:54.867Z,97302.94
2022-10-15T15:38:58.858Z,97310.91
2022-10-15T15:43:00.942Z,97322.22
2022-10-15T15:47:03.024Z,97335.69
2022-10-15T15:51:14.262Z,97330.75
2022-10-15T15:55:17.120Z,97329.22
2022-10-15T15:59:21.667Z,97323.28
2022-10-15T16:03:23.689Z,97320.16
2022-10-15T16:07:28.386Z,97324.84
2022-10-15T16:11:30.849Z,97319.06
2022-10-15T16:15:32.930Z,97327.00
2022-10-15T16:19:34.936Z,97317.38
2022-10-15T16:23:36.941Z,97317.47
2022-10-15T16:27:38.966Z,97338.50
2022-10-15T16:31:40.965Z,97337.50
2022-10-15T16:35:43.004Z,97346.72
2022-10-15T16:39:44.998Z,97350.66
2022-10-15T16:43:48.256Z,97365.94
2022-10-15T16:47:50.359Z,97367.00
2022-10-15T16:51:52.432Z,97357.28
2022-10-15T16:55:59.913Z,97368.22
2022-10-15T17:00:02.018Z,97369.38
2022-10-15T17:04:04.161Z,97366.84
2022-10-15T17:08:06.149Z,97392.19
2022-10-15T17:12:08.117Z,97390.53
2022-10-15T17:16:19.637Z,97387.91
2022-10-15T17:20:21.723Z,97381.63
2022-10-15T17:24:23.829Z,97403.41
2022-10-15T17:28:25.975Z,97400.44
2022-10-15T17:32:28.106Z,97407.88
2022-10-15T17:36:31.939Z,97413.69
2022-10-15T17:40:34.038Z,97420.56
2022-10-15T17:44:36.235Z,97412.41
2022-10-15T17:48:39.288Z,97427.41
2022-10-15T17:52:41.595Z,97435.25
2022-10-15T17:56:43.698Z,97432.09
2022-10-15T18:00:56.122Z,97443.72
2022-10-15T18:04:58.122Z,97452.84
2022-10-15T18:09:00.358Z,97447.03
2022-10-15T18:13:02.368Z,97444.63
2022-10-15T18:17:04.718Z,97457.94
2022-10-15T18:21:12.200Z,97462.47
2022-10-15T18:25:14.252Z,97461.19
2022-10-15T18:29:16.650Z,97469.59
2022-10-15T18:33:19.562Z,97469.38
2022-10-15T18:37:21.631Z,97466.50
2022-10-15T18:41:29.625Z,97472.72
2022-10-15T18:45:32.689Z,97478.22
2022-10-15T18:49:34.704Z,97482.28
2022-10-15T18:53:40.024Z,97485.16
2022-10-15T18:57:42.493Z,97481.75
2022-10-15T19:01:44.580Z,97489.94
2022-10-15T19:05:48.310Z,97484.13
2022-10-15T19:09:50.489Z,97488.16
2022-10-15T19:13:57.572Z,97485.69
2022-10-15T19:17:59.870Z,97483.78
2022-10-15T19:22:02.947Z,97480.44
2022-10-15T19:26:09.461Z,97486.38
2022-10-15T19:30:11.553Z,97480.03
2022-10-15T19:34:13.888Z,97473.53
2022-10-15T19:38:15.962Z,97478.38
2022-10-15T19:42:18.263Z,97479.88
2022-10-15T19:46:20.598Z,97491.81
2022-10-15T19:50:23.432Z,97490.34
2022-10-15T19:58:33.243Z,97501.19
2022-10-15T20:02:35.977Z,97515.75
2022-10-15T20:06:38.653Z,97510.69
2022-10-15T20:10:42.279Z,97519.94
2022-10-15T20:14:44.287Z,97523.63
2022-10-15T20:18:46.295Z,97524.78
2022-10-15T20:22:48.316Z,97540.94
2022-10-15T20:26:50.706Z,97541.97
2022-10-15T20:35:03.683Z,97556.44
2022-10-15T20:39:05.728Z,97562.66
2022-10-15T20:43:08.495Z,97546.06
2022-10-15T20:47:14.041Z,97563.78
2022-10-15T20:51:18.549Z,97573.06
2022-10-15T20:55:20.692Z,97572.47
2022-10-15T20:59:25.349Z,97593.81
2022-10-15T21:03:30.965Z,97584.38
2022-10-15T21:07:33.088Z,97582.28
2022-10-15T21:11:40.772Z,97575.94
2022-10-15T21:15:42.780Z,97586.81
2022-10-15T21:19:47.822Z,97581.84
2022-10-15T21:23:51.330Z,97595.59
2022-10-15T21:27:53.337Z,97606.69
2022-10-15T21:31:55.413Z,97609.81
2022-10-15T21:35:57.438Z,97618.13
2022-10-15T21:39:59.481Z,97613.16
2022-10-15T21:44:02.507Z,97614.38
2022-10-15T21:48:04.746Z,97609.53
2022-10-15T21:52:06.762Z,97607.06
2022-10-15T21:56:09.579Z,97623.38
2022-10-15T22:00:15.378Z,97613.41
2022-10-15T22:04:20.663Z,97630.59
2022-10-15T22:08:22.739Z,97638.88
2022-10-15T22:12:24.983Z,97640.94
2022-10-15T22:16:28.220Z,97640.94
2022-10-15T22:20:30.261Z,97645.00
2022-10-15T22:24:32.784Z,97645.72
2022-10-15T22:28:34.898Z,97647.34
2022-10-15T22:32:37.125Z,97646.47
2022-10-15T22:36:39.229Z,97654.09
2022-10-15T22:40:41.266Z,97652.03
2022-10-15T22:44:43.479Z,97657.19
2022-10-15T22:48:45.804Z,97652.59
2022-10-15T22:52:47.952Z,97652.88
2022-10-15T22:56:51.393Z,97659.53
2022-10-15T23:00:53.992Z,97665.66
2022-10-15T23:04:56.043Z,97667.66
2022-10-15T23:08:58.843Z,97664.81
2022-10-15T23:13:00.876Z,97656.25
2022-10-15T23:17:02.951Z,97671.53
2022-10-15T23:21:15.439Z,97670.81
2022-10-15T23:25:17.436Z,97665.91
2022-10-15T23:29:24.495Z,97686.44
2022-10-15T23:33:26.500Z,97681.47
2022-10-15T23:37:28.727Z,97689.66
2022-10-15T23:41:31.493Z,97693.25
2022-10-15T23:45:35.730Z,97696.28
2022-10-15T23:49:40.096Z,97697.41
2022-10-15T23:57:44.143Z,97683.31
